createdAt,value
2023-08-25T00:00:18.045Z,14.04
2023-08-25T00:02:49.002Z,14.05
2023-08-25T00:05:20.505Z,14.02
2023-08-25T00:07:51.595Z,14.06
2023-08-25T00:10:22.393Z,14.11
2023-08-25T00:12:53.423Z,14.19
2023-08-25T00:15:24.957Z,14.25
2023-08-25T00:17:59.417Z,14.30
2023-08-25T00:20:32.163Z,14.36
2023-08-25T00:23:03.559Z,14.39
2023-08-25T00:25:34.892Z,14.44
2023-08-25T00:28:05.580Z,14.49
2023-08-25T00:30:35.517Z,14.49
2023-08-25T00:33:06.397Z,14.47
2023-08-25T00:35:37.618Z,14.50
2023-08-25T00:38:09.018Z,14.49
2023-08-25T00:40:40.292Z,14.52
2023-08-25T00:43:13.336Z,14.52
2023-08-25T00:45:45.001Z,14.57
2023-08-25T00:48:16.127Z,14.59
2023-08-25T00:50:47.467Z,14.63
2023-08-25T00:53:18.437Z,14.62
2023-08-25T00:55:48.832Z,14.64
2023-08-25T00:58:21.254Z,14.66
2023-08-25T01:00:54.106Z,14.64
2023-08-25T01:03:27.672Z,14.62
2023-08-25T01:05:59.095Z,14.62
2023-08-25T01:08:31.990Z,14.64
2023-08-25T01:11:24.700Z,14.70
2023-08-25T01:14:21.905Z,14.70
2023-08-25T01:17:10.772Z,14.73
2023-08-25T01:19:59.653Z,14.79
2023-08-25T01:22:54.422Z,14.86
2023-08-25T01:25:32.886Z,14.81
2023-08-25T01:28:07.068Z,14.80
2023-08-25T01:30:38.690Z,14.83
2023-08-25T01:33:09.166Z,14.77
2023-08-25T01:35:56.090Z,14.83
2023-08-25T01:38:58.533Z,14.81
2023-08-25T01:41:50.043Z,14.74
2023-08-25T01:44:26.213Z,14.69
2023-08-25T01:47:09.341Z,14.62
2023-08-25T01:49:41.552Z,14.57
2023-08-25T01:52:15.565Z,14.57
2023-08-25T01:54:46.948Z,14.52
2023-08-25T01:57:18.927Z,14.50
2023-08-25T01:59:49.493Z,14.47
2023-08-25T02:02:19.796Z,14.44
2023-08-25T02:04:51.423Z,14.49
2023-08-25T02:07:21.856Z,14.49
2023-08-25T02:09:55.958Z,14.43
2023-08-25T02:12:26.431Z,14.42
2023-08-25T02:14:57.329Z,14.33
2023-08-25T02:17:28.068Z,14.28
2023-08-25T02:19:59.528Z,14.25
2023-08-25T02:22:31.953Z,14.22
2023-08-25T02:25:02.415Z,14.22
2023-08-25T02:27:32.791Z,14.19
2023-08-25T02:30:02.814Z,14.15
2023-08-25T02:32:33.143Z,14.13
2023-08-25T02:35:07.891Z,14.04
2023-08-25T02:37:39.661Z,14.02
2023-08-25T02:40:10.970Z,13.95
2023-08-25T02:42:41.620Z,13.88
2023-08-25T02:45:12.161Z,13.88
2023-08-25T02:47:45.618Z,13.81
2023-08-25T02:50:16.777Z,13.78
2023-08-25T02:52:47.743Z,13.78
2023-08-25T02:55:21.988Z,13.74
2023-08-25T02:57:54.645Z,13.72
2023-08-25T03:00:26.980Z,13.71
2023-08-25T03:02:59.357Z,13.70
2023-08-25T03:05:30.519Z,13.71
2023-08-25T03:08:01.724Z,13.72
2023-08-25T03:10:33.964Z,13.72
2023-08-25T03:13:07.576Z,13.75
2023-08-25T03:15:39.687Z,13.72
2023-08-25T03:18:12.860Z,13.68
2023-08-25T03:20:43.733Z,13.68
2023-08-25T03:23:14.217Z,13.65
2023-08-25T03:25:45.078Z,13.62
2023-08-25T03:28:16.310Z,13.64
2023-08-25T03:30:48.764Z,13.57
2023-08-25T03:33:19.234Z,13.44
2023-08-25T03:35:50.389Z,13.40
2023-08-25T03:38:22.978Z,13.31
2023-08-25T03:41:01.188Z,13.30
2023-08-25T03:43:31.794Z,13.30
2023-08-25T03:46:02.231Z,13.24
2023-08-25T03:48:34.646Z,13.04
2023-08-25T03:51:05.706Z,12.90
2023-08-25T03:53:37.081Z,12.82
2023-08-25T03:56:08.082Z,12.77
2023-08-25T03:58:40.214Z,12.63
2023-08-25T04:01:11.855Z,12.59
2023-08-25T04:03:43.288Z,12.60
2023-08-25T04:06:14.261Z,12.52
2023-08-25T04:08:46.368Z,12.46
2023-08-25T04:11:17.281Z,12.49
2023-08-25T04:13:48.108Z,12.48
2023-08-25T04:16:19.362Z,12.50
2023-08-25T04:18:51.897Z,12.48
2023-08-25T04:21:22.727Z,12.39
2023-08-25T04:23:53.258Z,12.39
2023-08-25T04:26:24.960Z,12.35
2023-08-25T04:28:55.580Z,12.35
2023-08-25T04:31:26.169Z,12.28
2023-08-25T04:34:01.697Z,12.20
2023-08-25T04:36:34.187Z,12.21
2023-08-25T04:39:05.205Z,12.22
2023-08-25T04:41:38.356Z,12.22
2023-08-25T04:44:08.911Z,12.20
2023-08-25T04:46:41.486Z,12.17
2023-08-25T04:49:13.637Z,12.18
2023-08-25T04:51:44.588Z,12.18
2023-08-25T04:54:15.429Z,12.18
2023-08-25T04:56:49.833Z,12.18
2023-08-25T04:59:22.208Z,12.17
2023-08-25T05:01:53.563Z,12.15
2023-08-25T05:04:25.806Z,12.17
2023-08-25T05:06:57.528Z,12.18
2023-08-25T05:09:28.934Z,12.13
2023-08-25T05:11:59.281Z,12.14
2023-08-25T05:14:30.102Z,12.08
2023-08-25T05:17:01.115Z,12.08
2023-08-25T05:19:33.242Z,12.08
2023-08-25T05:22:04.309Z,12.06
2023-08-25T05:24:35.413Z,12.06
2023-08-25T05:27:05.911Z,12.06
2023-08-25T05:29:38.403Z,12.04
2023-08-25T05:32:18.314Z,11.98
2023-08-25T05:34:57.452Z,11.91
2023-08-25T05:37:28.699Z,11.90
2023-08-25T05:40:00.718Z,11.87
2023-08-25T05:42:40.469Z,11.75
2023-08-25T05:45:12.591Z,11.74
2023-08-25T05:47:43.520Z,11.74
2023-08-25T05:50:15.288Z,11.73
2023-08-25T05:52:48.053Z,11.74
2023-08-25T05:55:19.861Z,11.71
2023-08-25T05:57:50.449Z,11.71
2023-08-25T06:00:21.329Z,11.71
2023-08-25T06:02:51.650Z,11.71
2023-08-25T06:05:22.253Z,11.71
2023-08-25T06:07:53.074Z,11.64
2023-08-25T06:10:23.719Z,11.61
2023-08-25T06:12:54.229Z,11.61
2023-08-25T06:15:25.404Z,11.63
2023-08-25T06:17:57.270Z,11.59
2023-08-25T06:20:28.708Z,11.56
2023-08-25T06:23:01.000Z,11.50
2023-08-25T06:25:32.122Z,11.53
2023-08-25T06:28:03.163Z,11.47
2023-08-25T06:30:34.995Z,11.46
2023-08-25T06:33:05.932Z,11.40
2023-08-25T06:35:36.793Z,11.39
2023-08-25T06:38:07.600Z,11.34
2023-08-25T06:40:39.035Z,11.30
2023-08-25T06:43:09.448Z,11.32
2023-08-25T06:45:42.072Z,11.33
2023-08-25T06:48:13.438Z,11.26
2023-08-25T06:50:44.669Z,11.30
2023-08-25T06:53:16.792Z,11.32
2023-08-25T06:55:47.876Z,11.27
2023-08-25T06:58:18.554Z,11.32
2023-08-25T07:00:49.979Z,11.27
2023-08-25T07:03:21.000Z,11.32
2023-08-25T07:05:52.566Z,11.33
2023-08-25T07:08:24.642Z,11.33
2023-08-25T07:10:55.345Z,11.37
2023-08-25T07:13:26.466Z,11.40
2023-08-25T07:15:56.836Z,11.39
2023-08-25T07:18:27.926Z,11.36
2023-08-25T07:20:58.547Z,11.37
2023-08-25T07:23:28.936Z,11.39
2023-08-25T07:26:00.817Z,11.32
2023-08-25T07:28:31.300Z,11.32
2023-08-25T07:31:03.085Z,11.29
2023-08-25T07:33:33.817Z,11.27
2023-08-25T07:36:09.993Z,11.23
2023-08-25T07:38:42.497Z,11.16
2023-08-25T07:41:14.964Z,11.13
2023-08-25T07:43:47.268Z,11.06
2023-08-25T07:46:18.494Z,11.03
2023-08-25T07:48:50.137Z,11.02
2023-08-25T07:51:34.238Z,11.05
2023-08-25T07:54:10.235Z,10.96
2023-08-25T07:56:41.582Z,10.98
2023-08-25T07:59:12.802Z,10.91
2023-08-25T08:01:43.436Z,10.95
2023-08-25T08:04:13.915Z,10.89
2023-08-25T08:06:44.389Z,10.86
2023-08-25T08:09:15.715Z,10.85
2023-08-25T08:11:46.510Z,10.82
2023-08-25T08:14:16.811Z,10.80
2023-08-25T08:16:47.368Z,10.79
2023-08-25T08:19:17.778Z,10.78
2023-08-25T08:21:49.616Z,10.82
2023-08-25T08:24:20.080Z,10.83
2023-08-25T08:26:51.333Z,10.85
2023-08-25T08:29:22.976Z,10.82
2023-08-25T08:31:53.573Z,10.83
2023-08-25T08:34:24.693Z,10.83
2023-08-25T08:36:55.418Z,10.86
2023-08-25T08:39:27.385Z,10.85
2023-08-25T08:41:59.965Z,10.92
2023-08-25T08:44:33.619Z,10.88
2023-08-25T08:47:08.488Z,10.96
2023-08-25T08:49:40.637Z,10.98
2023-08-25T08:52:12.601Z,10.99
2023-08-25T08:54:46.540Z,11.00
2023-08-25T08:57:18.925Z,10.99
2023-08-25T08:59:49.510Z,11.05
2023-08-25T09:02:21.465Z,10.98
2023-08-25T09:04:56.429Z,10.91
2023-08-25T09:07:33.753Z,10.88
2023-08-25T09:10:05.036Z,10.80
2023-08-25T09:12:37.493Z,10.82
2023-08-25T09:15:10.751Z,10.83
2023-08-25T09:17:41.982Z,10.79
2023-08-25T09:20:14.364Z,10.75
2023-08-25T09:22:53.056Z,10.75
2023-08-25T09:25:24.533Z,10.72
2023-08-25T09:28:12.974Z,10.72
2023-08-25T09:30:47.594Z,10.76
2023-08-25T09:33:18.313Z,10.73
2023-08-25T09:35:49.653Z,10.68
2023-08-25T09:38:26.577Z,10.75
2023-08-25T09:40:57.907Z,10.73
2023-08-25T09:43:33.102Z,10.71
2023-08-25T09:46:04.349Z,10.72
2023-08-25T09:48:35.898Z,10.72
2023-08-25T09:51:09.880Z,10.76
2023-08-25T09:53:42.769Z,10.76
2023-08-25T09:56:18.215Z,10.78
2023-08-25T09:58:51.672Z,10.78
2023-08-25T10:01:23.058Z,10.79
2023-08-25T10:03:55.269Z,10.83
2023-08-25T10:06:26.114Z,10.86
2023-08-25T10:08:58.501Z,10.88
2023-08-25T10:11:34.553Z,10.86
2023-08-25T10:14:08.251Z,10.85
2023-08-25T10:16:42.114Z,10.93
2023-08-25T10:19:19.835Z,10.98
2023-08-25T10:21:53.685Z,11.08
2023-08-25T10:24:26.911Z,11.19
2023-08-25T10:26:58.080Z,11.27
2023-08-25T10:29:30.127Z,11.34
2023-08-25T10:32:07.389Z,11.43
2023-08-25T10:34:55.625Z,11.57
2023-08-25T10:37:30.325Z,11.61
2023-08-25T10:40:10.676Z,11.70
2023-08-25T10:42:42.570Z,11.74
2023-08-25T10:45:14.778Z,11.81
2023-08-25T10:47:50.503Z,11.90
2023-08-25T10:50:25.198Z,11.99
2023-08-25T10:52:57.978Z,12.14
2023-08-25T10:55:35.639Z,12.86
2023-08-25T10:58:07.822Z,18.16
2023-08-25T11:00:45.830Z,19.69
2023-08-25T11:03:18.367Z,20.75
2023-08-25T11:05:49.563Z,20.86
2023-08-25T11:08:29.912Z,20.71
2023-08-25T11:11:17.890Z,19.70
2023-08-25T11:13:48.580Z,18.26
2023-08-25T11:16:19.761Z,17.49
2023-08-25T11:18:50.680Z,17.23
2023-08-25T11:21:25.643Z,17.18
2023-08-25T11:23:59.702Z,17.18
2023-08-25T11:26:32.027Z,17.31
2023-08-25T11:29:03.542Z,17.53
2023-08-25T11:31:34.732Z,17.65
2023-08-25T11:34:05.468Z,17.70
2023-08-25T11:36:35.926Z,17.97
2023-08-25T11:39:06.467Z,18.11
2023-08-25T11:41:36.730Z,18.26
2023-08-25T11:44:09.588Z,18.44
2023-08-25T11:46:41.079Z,18.59
2023-08-25T11:49:12.603Z,18.71
2023-08-25T11:51:44.100Z,18.57
2023-08-25T11:54:14.798Z,18.57
2023-08-25T11:56:53.214Z,18.82
2023-08-25T11:59:25.884Z,18.79
2023-08-25T12:02:04.880Z,18.96
2023-08-25T12:04:36.687Z,19.18
2023-08-25T12:07:07.644Z,19.09
2023-08-25T12:09:38.654Z,18.91
2023-08-25T12:12:09.974Z,19.23
2023-08-25T12:14:42.751Z,19.42
2023-08-25T12:17:30.585Z,19.69
2023-08-25T12:20:01.243Z,19.66
2023-08-25T12:22:32.472Z,19.64
2023-08-25T12:25:03.569Z,19.52
2023-08-25T12:27:34.496Z,19.49
2023-08-25T12:30:04.829Z,19.05
2023-08-25T12:32:35.992Z,18.96
2023-08-25T12:35:07.922Z,19.15
2023-08-25T12:37:39.298Z,19.06
2023-08-25T12:40:10.577Z,18.78
2023-08-25T12:42:42.319Z,18.47
2023-08-25T12:45:13.486Z,18.43
2023-08-25T12:47:44.887Z,18.44
2023-08-25T12:50:15.936Z,18.88
2023-08-25T12:52:46.393Z,18.61
2023-08-25T12:55:22.025Z,18.79
2023-08-25T12:57:53.556Z,18.72
2023-08-25T13:00:24.747Z,18.82
2023-08-25T13:02:55.140Z,18.73
2023-08-25T13:05:26.645Z,18.72
2023-08-25T13:07:57.068Z,18.72
2023-08-25T13:10:29.348Z,18.67
2023-08-25T13:13:01.882Z,18.61
2023-08-25T13:15:35.636Z,18.72
2023-08-25T13:18:06.782Z,18.84
2023-08-25T13:20:37.452Z,18.88
2023-08-25T13:23:14.925Z,18.84
2023-08-25T13:25:52.672Z,18.72
2023-08-25T13:28:22.939Z,18.95
2023-08-25T13:30:53.731Z,18.98
2023-08-25T13:33:24.926Z,18.87
2023-08-25T13:35:57.416Z,18.82
2023-08-25T13:38:29.058Z,18.89
2023-08-25T13:41:00.197Z,19.05
2023-08-25T13:43:31.194Z,19.13
2023-08-25T13:46:02.534Z,19.13
2023-08-25T13:48:33.220Z,19.02
2023-08-25T13:51:04.003Z,18.91
2023-08-25T13:53:34.585Z,18.94
2023-08-25T13:56:06.073Z,19.03
2023-08-25T13:58:37.868Z,18.91
2023-08-25T14:01:08.522Z,18.84
2023-08-25T14:03:39.777Z,19.02
2023-08-25T14:06:12.309Z,19.15
2023-08-25T14:08:45.170Z,18.95
2023-08-25T14:11:15.579Z,18.85
2023-08-25T14:13:46.745Z,18.78
2023-08-25T14:16:17.987Z,18.85
2023-08-25T14:19:46.790Z,18.92
2023-08-25T14:22:17.351Z,18.81
2023-08-25T14:24:49.090Z,18.84
2023-08-25T14:27:19.720Z,18.88
2023-08-25T14:29:50.355Z,18.95
2023-08-25T14:32:20.929Z,18.84
2023-08-25T14:34:51.508Z,18.81
2023-08-25T14:37:22.302Z,18.78
2023-08-25T14:39:52.876Z,18.84
2023-08-25T14:42:23.888Z,18.87
2023-08-25T14:44:56.599Z,18.87
2023-08-25T14:47:28.533Z,18.72
2023-08-25T14:49:59.201Z,18.76
2023-08-25T14:52:29.252Z,18.73
2023-08-25T14:55:00.479Z,18.76
2023-08-25T14:57:30.903Z,18.84
2023-08-25T15:00:05.190Z,18.73
2023-08-25T15:02:35.758Z,18.72
2023-08-25T15:05:08.060Z,18.68
2023-08-25T15:07:38.624Z,18.67
2023-08-25T15:10:10.605Z,18.72
2023-08-25T15:12:41.180Z,18.67
2023-08-25T15:15:12.638Z,18.65
2023-08-25T15:17:44.044Z,18.57
2023-08-25T15:20:15.970Z,18.58
2023-08-25T15:22:47.857Z,18.45
2023-08-25T15:25:19.032Z,18.51
2023-08-25T15:27:49.863Z,18.68
2023-08-25T15:30:20.813Z,18.67
2023-08-25T15:32:51.814Z,18.64
2023-08-25T15:35:23.344Z,18.69
2023-08-25T15:37:54.299Z,18.62
2023-08-25T15:40:25.649Z,18.67
2023-08-25T15:42:56.354Z,18.61
2023-08-25T15:45:26.637Z,18.71
2023-08-25T15:47:58.171Z,18.75
2023-08-25T15:50:29.366Z,18.72
2023-08-25T15:53:01.887Z,18.72
2023-08-25T15:55:33.462Z,18.69
2023-08-25T15:58:04.570Z,18.57
2023-08-25T16:00:35.040Z,18.55
2023-08-25T16:03:05.946Z,18.47
2023-08-25T16:05:36.373Z,18.55
2023-08-25T16:08:07.319Z,18.48
2023-08-25T16:10:37.747Z,18.45
2023-08-25T16:13:08.716Z,18.38
2023-08-25T16:15:55.563Z,18.48
2023-08-25T16:18:30.037Z,18.61
2023-08-25T16:21:07.546Z,18.61
2023-08-25T16:23:41.983Z,18.48
2023-08-25T16:26:13.284Z,18.40
2023-08-25T16:28:43.733Z,18.41
2023-08-25T16:31:17.315Z,18.26
2023-08-25T16:33:48.775Z,18.30
2023-08-25T16:36:19.744Z,18.10
2023-08-25T16:38:50.045Z,18.04
2023-08-25T16:41:20.264Z,18.10
2023-08-25T16:43:55.330Z,18.11
2023-08-25T16:46:27.847Z,18.10
2023-08-25T16:48:58.118Z,18.06
2023-08-25T16:51:28.896Z,18.08
2023-08-25T16:54:00.414Z,17.89
2023-08-25T16:56:30.814Z,17.77
2023-08-25T17:08:10.871Z,17.90
2023-08-25T17:10:42.743Z,17.82
2023-08-25T17:13:13.393Z,17.83
2023-08-25T17:15:44.417Z,17.73
2023-08-25T17:18:14.772Z,17.67
2023-08-25T17:20:46.135Z,17.77
2023-08-25T17:23:16.835Z,17.72
2023-08-25T17:25:48.195Z,17.77
2023-08-25T17:28:18.794Z,17.70
2023-08-25T17:30:49.267Z,17.75
2023-08-25T17:33:19.966Z,17.77
2023-08-25T17:35:50.418Z,17.75
2023-08-25T17:38:21.008Z,17.67
2023-08-25T17:40:51.613Z,17.65
2023-08-25T17:43:22.119Z,17.67
2023-08-25T17:45:52.826Z,17.57
2023-08-25T17:48:23.359Z,17.61
2023-08-25T17:50:54.389Z,17.72
2023-08-25T17:53:26.555Z,17.63
2023-08-25T17:55:58.600Z,17.67
2023-08-25T17:58:29.791Z,17.67
2023-08-25T18:01:01.999Z,17.61
2023-08-25T18:03:33.199Z,17.52
2023-08-25T18:06:07.248Z,17.55
2023-08-25T18:08:41.204Z,17.59
2023-08-25T18:11:11.654Z,17.52
2023-08-25T18:13:41.696Z,17.53
2023-08-25T18:16:12.744Z,17.61
2023-08-25T18:18:43.961Z,17.52
2023-08-25T18:21:14.682Z,17.61
2023-08-25T18:23:45.317Z,17.45
2023-08-25T18:26:17.488Z,17.49
2023-08-25T18:28:47.917Z,17.53
2023-08-25T18:31:19.261Z,17.56
2023-08-25T18:33:50.598Z,17.55
2023-08-25T18:36:23.090Z,17.55
2023-08-25T18:38:54.807Z,17.63
2023-08-25T18:41:27.301Z,17.53
2023-08-25T18:43:58.162Z,17.55
2023-08-25T18:46:29.834Z,17.49
2023-08-25T18:49:00.961Z,17.02
2023-08-25T18:51:32.701Z,16.84
2023-08-25T18:54:03.335Z,16.81
2023-08-25T18:56:35.577Z,16.65
2023-08-25T18:59:07.636Z,16.56
2023-08-25T19:01:38.130Z,16.44
2023-08-25T19:04:08.828Z,16.37
2023-08-25T19:06:40.349Z,16.34
2023-08-25T19:09:11.229Z,16.43
2023-08-25T19:11:42.148Z,16.63
2023-08-25T19:14:12.809Z,16.88
2023-08-25T19:16:44.247Z,16.81
2023-08-25T19:19:15.492Z,16.70
2023-08-25T19:21:45.942Z,16.74
2023-08-25T19:24:16.542Z,16.77
2023-08-25T19:26:47.492Z,16.64
2023-08-25T19:29:18.953Z,16.65
2023-08-25T19:31:49.312Z,16.74
2023-08-25T19:34:20.240Z,16.71
2023-08-25T19:36:52.424Z,16.54
2023-08-25T19:39:24.893Z,16.47
2023-08-25T19:41:55.446Z,16.43
2023-08-25T19:44:26.970Z,16.34
2023-08-25T19:46:57.411Z,16.30
2023-08-25T19:49:28.405Z,16.17
2023-08-25T19:51:58.991Z,16.17
2023-08-25T19:54:29.554Z,15.70
2023-08-25T19:57:01.273Z,15.59
2023-08-25T19:59:32.598Z,15.63
2023-08-25T20:02:03.672Z,15.78
2023-08-25T20:04:35.103Z,15.82
2023-08-25T20:07:05.926Z,15.76
2023-08-25T20:09:38.089Z,15.75
2023-08-25T20:12:09.592Z,15.62
2023-08-25T20:14:40.417Z,15.58
2023-08-25T20:17:11.037Z,15.52
2023-08-25T20:19:43.636Z,15.52
2023-08-25T20:22:14.060Z,15.49
2023-08-25T20:24:45.715Z,15.44
2023-08-25T20:27:16.707Z,15.44
2023-08-25T20:29:47.969Z,15.31
2023-08-25T20:32:18.846Z,15.28
2023-08-25T20:34:51.244Z,15.27
2023-08-25T20:37:23.710Z,15.15
2023-08-25T20:39:55.155Z,15.00
2023-08-25T20:42:25.506Z,14.95
2023-08-25T20:44:57.579Z,14.95
2023-08-25T20:47:28.762Z,14.84
2023-08-25T20:49:59.068Z,14.72
2023-08-25T20:52:29.613Z,14.60
2023-08-25T20:55:02.744Z,14.62
2023-08-25T20:57:33.807Z,14.60
2023-08-25T21:00:04.795Z,14.53
2023-08-25T21:02:35.981Z,14.44
2023-08-25T21:05:06.805Z,14.32
2023-08-25T21:07:37.836Z,14.23
2023-08-25T21:10:09.317Z,14.19
2023-08-25T21:12:40.271Z,14.11
2023-08-25T21:15:12.150Z,14.02
2023-08-25T21:17:43.766Z,14.01
2023-08-25T21:20:14.674Z,13.95
2023-08-25T21:22:46.922Z,13.88
2023-08-25T21:25:17.448Z,13.88
2023-08-25T21:27:47.707Z,13.81
2023-08-25T21:30:18.402Z,13.75
2023-08-25T21:32:48.666Z,13.72
2023-08-25T21:35:19.862Z,13.68
2023-08-25T21:37:49.838Z,13.61
2023-08-25T21:40:20.136Z,13.54
2023-08-25T21:42:51.385Z,13.48
2023-08-25T21:45:22.713Z,13.48
2023-08-25T21:47:53.670Z,13.48
2023-08-25T21:50:25.076Z,13.51
2023-08-25T21:52:55.865Z,13.48
2023-08-25T21:55:27.120Z,13.43
2023-08-25T21:57:58.086Z,13.46
2023-08-25T22:00:29.500Z,13.41
2023-08-25T22:03:00.265Z,13.40
2023-08-25T22:05:31.239Z,13.40
2023-08-25T22:08:02.004Z,13.34
2023-08-25T22:10:37.933Z,13.28
2023-08-25T22:13:08.176Z,13.36
2023-08-25T22:15:39.058Z,13.26
2023-08-25T22:18:09.752Z,13.21
2023-08-25T22:20:40.183Z,13.18
2023-08-25T22:23:11.423Z,13.24
2023-08-25T22:25:43.313Z,13.20
2023-08-25T22:28:14.700Z,13.11
2023-08-25T22:30:47.850Z,13.04
2023-08-25T22:35:55.070Z,13.02
2023-08-25T22:38:32.970Z,12.97
2023-08-25T22:41:04.983Z,12.93
2023-08-25T22:44:02.900Z,12.90
2023-08-25T22:47:01.519Z,12.95
2023-08-25T22:49:38.537Z,12.90
2023-08-25T22:52:09.920Z,12.85
2023-08-25T22:54:40.630Z,12.70
2023-08-25T22:57:12.459Z,12.59
2023-08-25T22:59:44.956Z,12.53
2023-08-25T23:02:16.890Z,12.45
2023-08-25T23:04:49.411Z,12.29
2023-08-25T23:07:20.039Z,12.28
2023-08-25T23:09:51.525Z,12.21
2023-08-25T23:12:22.773Z,12.11
2023-08-25T23:14:54.387Z,12.10
2023-08-25T23:17:32.964Z,12.02
2023-08-25T23:20:04.588Z,11.98
2023-08-25T23:22:36.762Z,11.93
2023-08-25T23:25:08.465Z,11.88
2023-08-25T23:27:39.199Z,11.75
2023-08-25T23:30:14.074Z,11.73
2023-08-25T23:32:45.593Z,11.66
2023-08-25T23:38:00.322Z,11.59
2023-08-25T23:40:41.122Z,11.53
2023-08-25T23:43:13.811Z,11.50
2023-08-25T23:45:44.973Z,11.42
2023-08-25T23:48:15.648Z,11.34
2023-08-25T23:50:48.648Z,11.27
2023-08-25T23:56:44.981Z,11.16
2023-08-25T23:59:20.498Z,11.19
